Time;durP1;ratioP1;P1;durP2;ratioP2;P2;SDS_P1;SDS_P2;PMS_P1;PMS_P2;Temp;Humidity;BMP_temperature;BMP_pressure;BME280_temperature;BME280_humidity;BME280_pressure;Samples;Min_cycle;Max_cycle;Signal;HPM_P1;HPM_P2
2021/03/02 00:00:58;;;;;;;3.50;3.20;;;24.30;51.20;;;;;;5096376;28;20446;-60
2021/03/02 00:03:27;;;;;;;3.60;3.40;;;24.30;51.20;;;;;;5096313;28;20450;-60
2021/03/02 00:05:53;;;;;;;3.60;3.30;;;24.30;51.20;;;;;;5096203;28;20538;-65
2021/03/02 00:08:20;;;;;;;3.17;2.97;;;24.40;51.20;;;;;;5096425;28;20435;-64
2021/03/02 00:10:48;;;;;;;3.90;3.60;;;24.30;51.20;;;;;;5096471;28;20427;-60
2021/03/02 00:13:15;;;;;;;3.27;3.07;;;24.30;51.20;;;;;;5096278;28;20444;-60
2021/03/02 00:15:42;;;;;;;2.90;2.70;;;24.30;51.20;;;;;;5096116;28;21235;-60
2021/03/02 00:18:12;;;;;;;3.27;3.07;;;24.30;51.20;;;;;;5096182;28;20447;-60
2021/03/02 00:20:45;;;;;;;3.50;3.30;;;24.30;51.20;;;;;;5096304;28;20453;-60
2021/03/02 00:23:18;;;;;;;3.37;3.17;;;24.30;51.20;;;;;;5096243;28;20454;-61
2021/03/02 00:25:50;;;;;;;4.63;3.80;;;24.30;51.20;;;;;;5096016;28;20449;-60
2021/03/02 00:28:18;;;;;;;3.37;3.13;;;24.30;51.20;;;;;;5096054;28;20448;-60
2021/03/02 00:30:48;;;;;;;2.73;2.60;;;24.20;51.10;;;;;;5095954;28;20925;-60
2021/03/02 00:33:15;;;;;;;3.67;3.40;;;24.20;51.10;;;;;;5096043;28;20747;-61
2021/03/02 00:35:41;;;;;;;3.77;3.50;;;24.30;51.20;;;;;;5095694;28;20483;-60
2021/03/02 00:38:07;;;;;;;2.73;2.47;;;24.30;51.20;;;;;;5095684;28;20468;-60
2021/03/02 00:40:34;;;;;;;2.97;2.77;;;24.20;51.10;;;;;;5095741;28;20446;-60
2021/03/02 00:43:00;;;;;;;3.13;2.93;;;24.40;51.20;;;;;;5095509;28;20446;-60
2021/03/02 00:45:27;;;;;;;3.20;3.00;;;24.20;51.10;;;;;;5095662;28;20439;-60
2021/03/02 00:47:54;;;;;;;3.03;2.83;;;24.20;51.10;;;;;;5095257;28;20447;-60
2021/03/02 00:50:22;;;;;;;3.30;3.10;;;24.20;51.10;;;;;;5095533;28;20446;-64
2021/03/02 00:52:49;;;;;;;3.10;2.90;;;24.20;51.00;;;;;;5095586;28;20447;-63
2021/03/02 00:55:15;;;;;;;3.20;3.00;;;24.20;51.10;;;;;;5095312;28;20470;-61
2021/03/02 00:57:42;;;;;;;2.97;2.77;;;24.20;51.10;;;;;;5095382;28;20452;-60
2021/03/02 01:00:09;;;;;;;3.47;3.17;;;24.20;51.10;;;;;;5095435;28;20449;-60
2021/03/02 01:02:37;;;;;;;3.40;3.20;;;24.20;51.10;;;;;;5095374;28;20438;-62
2021/03/02 01:05:05;;;;;;;3.07;2.87;;;24.20;51.00;;;;;;5095193;28;20449;-62
2021/03/02 01:07:31;;;;;;;2.90;2.70;;;24.20;51.00;;;;;;5095018;28;20484;-60
2021/03/02 01:09:57;;;;;;;2.90;2.70;;;24.20;51.00;;;;;;5095096;28;20777;-60
2021/03/02 01:12:26;;;;;;;3.47;3.27;;;24.20;51.10;;;;;;5095269;28;20439;-60
2021/03/02 01:14:53;;;;;;;3.10;2.90;;;24.20;51.00;;;;;;5095037;28;20438;-60
2021/03/02 01:17:19;;;;;;;3.10;2.90;;;24.20;51.00;;;;;;5095044;28;20485;-60
2021/03/02 01:19:47;;;;;;;3.03;2.83;;;24.20;51.00;;;;;;5094924;28;20440;-60
2021/03/02 01:22:13;;;;;;;2.80;2.60;;;24.20;51.00;;;;;;5095106;28;20968;-59
2021/03/02 01:24:39;;;;;;;3.40;3.10;;;24.20;51.00;;;;;;5094880;28;20855;-60
2021/03/02 01:27:06;;;;;;;3.00;2.80;;;24.30;51.10;;;;;;5094982;28;20443;-60
2021/03/02 01:29:32;;;;;;;2.93;2.73;;;24.10;50.90;;;;;;5095033;28;20444;-60
2021/03/02 01:31:58;;;;;;;2.87;2.67;;;24.10;50.80;;;;;;5094741;28;20850;-60
2021/03/02 01:34:25;;;;;;;2.70;2.60;;;24.20;51.60;;;;;;5094623;28;20446;-60
2021/03/02 01:36:52;;;;;;;2.80;2.60;;;24.10;50.90;;;;;;5094513;28;20485;-60
2021/03/02 01:39:18;;;;;;;3.20;3.00;;;24.20;51.00;;;;;;5094657;28;20442;-61
2021/03/02 01:41:48;;;;;;;2.70;2.50;;;24.10;51.00;;;;;;5094620;28;20438;-60
2021/03/02 01:44:14;;;;;;;3.30;3.10;;;24.20;51.00;;;;;;5094654;28;20449;-60
2021/03/02 01:46:41;;;;;;;2.97;2.77;;;24.10;50.90;;;;;;5094612;28;20442;-60
2021/03/02 01:49:07;;;;;;;2.90;2.70;;;24.10;50.90;;;;;;5094436;28;20790;-60
2021/03/02 01:51:33;;;;;;;2.13;2.03;;;24.10;50.90;;;;;;5094352;28;20449;-60
2021/03/02 01:54:01;;;;;;;3.00;2.80;;;24.10;50.90;;;;;;5093972;28;20470;-60
2021/03/02 01:56:27;;;;;;;2.80;2.60;;;24.10;50.90;;;;;;5094238;28;20509;-60
2021/03/02 01:58:53;;;;;;;2.17;2.07;;;24.10;51.50;;;;;;5093991;28;20431;-60
2021/03/02 02:01:20;;;;;;;2.70;2.50;;;24.20;50.90;;;;;;5093833;28;20433;-61
2021/03/02 02:03:50;;;;;;;2.60;2.40;;;24.10;50.90;;;;;;5094349;28;20443;-65
2021/03/02 02:06:20;;;;;;;3.00;2.80;;;24.10;50.80;;;;;;5094302;28;21079;-65
2021/03/02 02:08:54;;;;;;;2.70;2.50;;;24.10;50.80;;;;;;5094046;28;20431;-67
2021/03/02 02:11:32;;;;;;;3.00;2.80;;;24.20;51.20;;;;;;5094148;28;20439;-65
2021/03/02 02:14:07;;;;;;;2.13;2.03;;;24.10;50.90;;;;;;5093930;28;20447;-66
2021/03/02 02:16:36;;;;;;;2.73;2.53;;;24.10;50.90;;;;;;5093866;28;20832;-63
2021/03/02 02:19:05;;;;;;;2.93;2.73;;;24.10;50.80;;;;;;5093959;28;20446;-66
2021/03/02 02:21:41;;;;;;;2.27;2.17;;;24.10;50.80;;;;;;5093963;28;20447;-65
2021/03/02 02:24:16;;;;;;;2.47;2.27;;;24.10;50.90;;;;;;5093867;28;20442;-64
2021/03/02 02:26:55;;;;;;;2.93;2.73;;;24.10;50.80;;;;;;5093986;28;20438;-62
2021/03/02 02:29:26;;;;;;;2.80;2.60;;;24.10;50.80;;;;;;5093920;28;20499;-63
2021/03/02 02:31:55;;;;;;;2.80;2.60;;;24.10;50.80;;;;;;5093871;28;20441;-62
2021/03/02 02:34:23;;;;;;;2.80;2.60;;;24.10;50.90;;;;;;5093499;28;20438;-61
2021/03/02 02:36:50;;;;;;;2.70;2.50;;;24.10;50.80;;;;;;5093438;28;20490;-61
2021/03/02 02:39:18;;;;;;;2.60;2.40;;;24.10;50.80;;;;;;5093503;28;20439;-61
2021/03/02 02:41:47;;;;;;;2.37;2.17;;;24.10;50.80;;;;;;5093653;28;20501;-62
2021/03/02 02:44:17;;;;;;;2.67;2.47;;;24.10;50.80;;;;;;5093659;28;20450;-61
2021/03/02 02:46:44;;;;;;;2.33;2.20;;;24.10;50.80;;;;;;5093652;28;20492;-63
2021/03/02 02:49:11;;;;;;;2.53;2.37;;;24.10;50.80;;;;;;5093522;28;20442;-63
2021/03/02 02:51:39;;;;;;;1.97;1.87;;;24.10;50.70;;;;;;5093300;28;20444;-65
2021/03/02 02:54:06;;;;;;;2.53;2.33;;;24.10;50.80;;;;;;5093146;28;20470;-65
2021/03/02 02:56:34;;;;;;;2.23;2.10;;;24.10;50.70;;;;;;5093247;28;20494;-62
2021/03/02 02:59:04;;;;;;;2.27;2.17;;;24.10;50.70;;;;;;5093421;28;20435;-66
2021/03/02 03:01:37;;;;;;;2.50;2.20;;;24.10;50.80;;;;;;5093273;28;20461;-66
2021/03/02 03:04:09;;;;;;;2.13;2.03;;;24.10;50.80;;;;;;5093426;28;20807;-60
2021/03/02 03:06:40;;;;;;;2.60;2.40;;;24.10;50.80;;;;;;5093195;28;20469;-65
2021/03/02 03:12:30;;;;;;;2.37;2.17;;;24.10;50.70;;;;;;5097272;28;20411;-64
2021/03/02 03:14:59;;;;;;;2.40;2.20;;;24.00;50.70;;;;;;5097560;28;20443;-66
2021/03/02 03:17:29;;;;;;;2.43;2.33;;;24.10;50.80;;;;;;5097549;28;20494;-66
2021/03/02 03:19:57;;;;;;;2.53;2.33;;;24.10;50.80;;;;;;5097820;28;20449;-66
2021/03/02 03:22:23;;;;;;;2.83;2.53;;;24.10;50.80;;;;;;5097382;28;20447;-66
2021/03/02 03:24:50;;;;;;;2.57;2.37;;;24.10;50.80;;;;;;5097285;28;20481;-65
2021/03/02 03:27:17;;;;;;;2.70;2.50;;;24.10;50.80;;;;;;5097189;28;20453;-66
2021/03/02 03:29:46;;;;;;;2.30;2.10;;;24.10;50.80;;;;;;5097263;28;20446;-65
2021/03/02 03:32:13;;;;;;;2.50;2.30;;;24.10;50.80;;;;;;5097125;28;20443;-66
2021/03/02 03:34:42;;;;;;;2.60;2.40;;;24.10;50.70;;;;;;5097034;28;20492;-65
2021/03/02 03:37:08;;;;;;;2.40;2.30;;;24.10;50.80;;;;;;5096802;28;20486;-65
2021/03/02 03:39:35;;;;;;;2.40;2.20;;;24.10;50.70;;;;;;5096927;28;20438;-65
2021/03/02 03:42:01;;;;;;;2.50;2.30;;;24.10;50.70;;;;;;5096846;28;20446;-66
2021/03/02 03:44:27;;;;;;;2.03;1.93;;;24.10;50.70;;;;;;5096872;28;20446;-66
2021/03/02 03:46:54;;;;;;;2.50;2.40;;;24.10;50.70;;;;;;5096849;28;20438;-67
2021/03/02 03:49:20;;;;;;;2.50;2.40;;;24.10;50.70;;;;;;5096792;28;20434;-67
2021/03/02 03:51:48;;;;;;;2.03;1.93;;;24.10;50.70;;;;;;5096818;28;20440;-66
2021/03/02 03:54:16;;;;;;;2.80;2.60;;;24.10;50.70;;;;;;5096626;28;20475;-66
2021/03/02 03:56:43;;;;;;;2.10;2.00;;;24.10;50.80;;;;;;5096745;28;20854;-67
2021/03/02 03:59:12;;;;;;;2.33;2.17;;;24.10;50.70;;;;;;5096575;28;20446;-66
2021/03/02 04:01:39;;;;;;;2.10;2.00;;;24.10;50.70;;;;;;5096740;28;20441;-67
2021/03/02 04:04:06;;;;;;;2.00;1.90;;;24.10;50.60;;;;;;5096408;28;20447;-65
2021/03/02 04:06:34;;;;;;;2.30;2.10;;;24.10;50.60;;;;;;5096265;28;20454;-65
2021/03/02 04:09:02;;;;;;;1.80;1.70;;;24.10;50.60;;;;;;5096452;28;20435;-66
2021/03/02 04:11:34;;;;;;;2.50;2.30;;;24.10;50.60;;;;;;5096554;28;20797;-66
2021/03/02 04:14:00;;;;;;;2.07;1.97;;;24.10;50.60;;;;;;5096532;28;20445;-66
2021/03/02 04:16:26;;;;;;;2.93;2.43;;;24.10;50.50;;;;;;5096286;28;20486;-65
2021/03/02 04:18:53;;;;;;;2.40;2.30;;;24.10;50.60;;;;;;5096303;28;20440;-67
2021/03/02 04:21:19;;;;;;;2.70;2.60;;;24.10;50.60;;;;;;5096497;28;20442;-66
2021/03/02 04:23:45;;;;;;;2.10;2.00;;;24.10;50.60;;;;;;5095557;28;20441;-63
2021/03/02 04:26:12;;;;;;;2.53;2.37;;;24.10;50.60;;;;;;5096011;28;20734;-67
2021/03/02 04:28:38;;;;;;;2.33;2.23;;;24.10;50.50;;;;;;5096158;28;20796;-66
2021/03/02 04:31:05;;;;;;;2.47;2.27;;;24.10;50.50;;;;;;5096006;28;20944;-67
2021/03/02 04:33:31;;;;;;;2.70;2.50;;;24.10;50.50;;;;;;5096197;28;20442;-66
2021/03/02 04:35:57;;;;;;;2.10;2.00;;;24.10;50.60;;;;;;5095646;28;20480;-67
2021/03/02 04:38:23;;;;;;;2.00;1.90;;;24.10;50.60;;;;;;5096014;28;20456;-66
2021/03/02 04:40:50;;;;;;;1.70;1.60;;;24.10;50.60;;;;;;5095846;28;20933;-67
2021/03/02 04:43:17;;;;;;;2.63;2.43;;;24.10;50.60;;;;;;5096114;28;20447;-66
2021/03/02 04:45:43;;;;;;;2.23;2.03;;;24.10;50.60;;;;;;5095607;28;20788;-65
2021/03/02 04:48:10;;;;;;;2.20;2.10;;;24.10;50.60;;;;;;5095341;28;20450;-66
2021/03/02 04:50:36;;;;;;;2.33;2.10;;;24.10;50.60;;;;;;5095431;28;20825;-67
2021/03/02 04:53:02;;;;;;;2.10;1.97;;;24.10;50.50;;;;;;5095556;28;20792;-66
2021/03/02 04:55:29;;;;;;;1.60;1.50;;;24.10;50.50;;;;;;5095336;28;20469;-64
2021/03/02 04:57:55;;;;;;;2.50;2.33;;;24.10;50.50;;;;;;5095453;28;20462;-64
2021/03/02 05:00:23;;;;;;;2.13;2.03;;;24.10;50.50;;;;;;5095311;28;20779;-64
2021/03/02 05:02:50;;;;;;;1.93;1.83;;;24.10;50.50;;;;;;5095568;28;20925;-61
2021/03/02 05:05:16;;;;;;;2.53;2.33;;;24.10;50.60;;;;;;5095483;28;20827;-65
2021/03/02 05:07:42;;;;;;;2.00;1.90;;;24.10;50.40;;;;;;5095112;28;20462;-64
2021/03/02 05:10:09;;;;;;;1.83;1.70;;;24.10;50.50;;;;;;5095332;28;20793;-63
2021/03/02 05:12:36;;;;;;;2.37;2.17;;;24.10;50.60;;;;;;5095200;28;20443;-62
2021/03/02 05:15:02;;;;;;;1.77;1.67;;;24.10;50.50;;;;;;5095151;28;20450;-64
2021/03/02 05:17:29;;;;;;;2.17;2.07;;;24.10;50.40;;;;;;5094917;28;20540;-66
2021/03/02 05:19:55;;;;;;;2.00;1.90;;;24.10;50.50;;;;;;5095049;28;20441;-63
2021/03/02 05:22:22;;;;;;;2.17;2.00;;;24.00;50.40;;;;;;5094868;28;20439;-65
2021/03/02 05:24:48;;;;;;;1.97;1.87;;;24.10;50.60;;;;;;5095036;28;20441;-66
2021/03/02 05:27:14;;;;;;;2.97;2.20;;;24.10;50.70;;;;;;5094833;28;20441;-66
2021/03/02 05:29:41;;;;;;;4.73;2.60;;;24.10;51.10;;;;;;5094495;28;20928;-66
2021/03/02 05:32:07;;;;;;;2.37;2.10;;;24.10;51.30;;;;;;5094509;28;20441;-64
2021/03/02 05:34:34;;;;;;;2.93;2.60;;;24.10;51.50;;;;;;5093595;28;20442;-60
2021/03/02 05:37:00;;;;;;;6.37;2.10;;;24.10;51.80;;;;;;5094371;28;20486;-64
2021/03/02 05:39:27;;;;;;;5.13;3.00;;;24.10;51.90;;;;;;5094643;28;20888;-60
2021/03/02 05:41:53;;;;;;;3.20;2.90;;;24.10;51.90;;;;;;5094626;28;20449;-60
2021/03/02 05:44:20;;;;;;;10.80;3.63;;;24.10;52.10;;;;;;5094551;28;20777;-64
2021/03/02 05:46:47;;;;;;;5.50;3.53;;;24.10;52.10;;;;;;5094512;28;20947;-60
2021/03/02 05:49:14;;;;;;;5.83;2.73;;;24.10;51.50;;;;;;5094371;28;20451;-61
2021/03/02 05:51:42;;;;;;;5.60;2.80;;;24.10;51.90;;;;;;5094468;28;20455;-60
2021/03/02 05:54:10;;;;;;;2.30;2.10;;;24.10;52.20;;;;;;5094063;28;20526;-60
2021/03/02 05:56:37;;;;;;;3.13;2.43;;;24.10;52.50;;;;;;5094274;28;20494;-64
2021/03/02 05:59:04;;;;;;;11.00;2.70;;;24.10;52.70;;;;;;5094535;28;20452;-61
2021/03/02 06:01:31;;;;;;;4.00;2.80;;;24.20;52.80;;;;;;5094181;28;20938;-63
2021/03/02 06:03:57;;;;;;;4.17;2.77;;;24.10;52.70;;;;;;5094143;28;20437;-60
2021/03/02 06:06:23;;;;;;;3.23;2.70;;;24.10;52.70;;;;;;5093960;28;20460;-62
2021/03/02 06:08:50;;;;;;;4.17;2.70;;;24.10;52.70;;;;;;5094083;28;20441;-61
2021/03/02 06:11:30;;;;;;;4.70;2.43;;;24.10;52.70;;;;;;5094155;28;20526;-60
2021/03/02 06:14:10;;;;;;;3.23;2.53;;;24.10;52.70;;;;;;5093955;28;20450;-60
2021/03/02 06:16:45;;;;;;;2.90;2.43;;;24.10;52.70;;;;;;5094031;28;20478;-60
2021/03/02 06:19:12;;;;;;;3.27;2.17;;;24.10;52.70;;;;;;5093833;28;20435;-60
2021/03/02 06:21:39;;;;;;;3.83;2.47;;;24.10;52.60;;;;;;5093942;28;20446;-60
2021/03/02 06:24:07;;;;;;;2.70;1.80;;;24.10;52.60;;;;;;5094027;28;20438;-60
2021/03/02 06:26:35;;;;;;;3.37;2.00;;;24.10;52.60;;;;;;5093929;28;20450;-60
2021/03/02 06:29:13;;;;;;;2.63;2.27;;;24.10;52.60;;;;;;5093769;28;20955;-60
2021/03/02 06:31:43;;;;;;;2.90;2.40;;;24.10;52.60;;;;;;5093627;28;20443;-60
2021/03/02 06:34:12;;;;;;;4.47;2.30;;;24.10;52.60;;;;;;5093772;28;20526;-62
2021/03/02 06:36:40;;;;;;;2.50;2.30;;;24.10;52.60;;;;;;5093524;28;20491;-62
2021/03/02 06:39:28;;;;;;;3.53;2.80;;;24.20;52.60;;;;;;5093493;28;20442;-63
2021/03/02 06:42:11;;;;;;;4.63;2.30;;;24.20;52.70;;;;;;5093511;28;20442;-61
2021/03/02 06:44:37;;;;;;;4.43;2.20;;;24.20;52.70;;;;;;5093483;28;20441;-61
2021/03/02 06:47:04;;;;;;;4.30;2.40;;;24.10;52.70;;;;;;5093231;28;20467;-60
2021/03/02 06:49:42;;;;;;;6.67;5.53;;;24.10;52.40;;;;;;5093035;28;20496;-60
2021/03/02 06:52:13;;;;;;;9.60;5.07;;;24.10;50.60;;;;;;5093281;28;20530;-62
2021/03/02 06:54:40;;;;;;;5.93;4.43;;;24.10;50.60;;;;;;5091925;28;20968;-61
2021/03/02 06:57:07;;;;;;;3.47;3.17;;;24.10;51.10;;;;;;5084224;28;20566;-61
2021/03/02 06:59:33;;;;;;;3.73;3.07;;;24.00;51.30;;;;;;5087576;28;20440;-61
2021/03/02 07:02:00;;;;;;;4.40;2.57;;;24.00;51.60;;;;;;5093226;28;20458;-63
2021/03/02 07:04:29;;;;;;;2.53;2.33;;;24.00;51.80;;;;;;5093166;28;20932;-60
2021/03/02 07:06:57;;;;;;;3.77;2.57;;;24.10;51.90;;;;;;5093194;28;20903;-60
2021/03/02 07:09:24;;;;;;;4.87;2.80;;;24.00;51.80;;;;;;5093249;28;20442;-61
2021/03/02 07:11:54;;;;;;;3.50;2.87;;;24.10;51.90;;;;;;5093333;28;20500;-62
2021/03/02 07:14:21;;;;;;;3.53;2.43;;;24.10;52.00;;;;;;5085920;28;20446;-63
2021/03/02 07:16:49;;;;;;;2.67;2.47;;;24.10;52.00;;;;;;5084385;28;20488;-61
2021/03/02 07:19:16;;;;;;;4.13;2.87;;;24.10;52.00;;;;;;5082751;28;20925;-62
2021/03/02 07:21:44;;;;;;;2.60;2.40;;;24.10;52.00;;;;;;5080765;28;20440;-64
2021/03/02 07:24:13;;;;;;;4.10;2.37;;;24.10;52.00;;;;;;5078264;28;20443;-65
2021/03/02 07:26:44;;;;;;;2.47;2.20;;;24.10;52.00;;;;;;5073136;28;20458;-61
2021/03/02 07:29:11;;;;;;;2.70;2.50;;;24.10;52.00;;;;;;5072932;28;20444;-61
2021/03/02 07:31:39;;;;;;;2.30;2.07;;;24.10;51.90;;;;;;5072729;28;20436;-61
2021/03/02 07:34:07;;;;;;;4.97;2.53;;;24.10;52.00;;;;;;5072784;28;20432;-64
2021/03/02 07:36:36;;;;;;;3.80;2.90;;;24.10;52.00;;;;;;5072624;28;20489;-66
2021/03/02 07:39:19;;;;;;;2.70;2.50;;;24.10;52.00;;;;;;5072754;28;20508;-62
2021/03/02 07:41:47;;;;;;;4.00;2.20;;;24.20;52.00;;;;;;5078904;28;20564;-66
2021/03/02 07:44:15;;;;;;;3.13;2.40;;;24.10;52.00;;;;;;5081398;28;20439;-62
2021/03/02 07:46:46;;;;;;;2.57;2.37;;;24.10;52.00;;;;;;5080472;28;20427;-62
2021/03/02 07:49:28;;;;;;;2.13;1.93;;;24.10;52.00;;;;;;5072577;28;20803;-66
2021/03/02 07:52:18;;;;;;;4.00;2.30;;;24.10;51.90;;;;;;5071110;28;20908;-64
2021/03/02 07:54:46;;;;;;;2.47;2.37;;;24.10;51.90;;;;;;5072394;28;20463;-64
2021/03/02 07:57:27;;;;;;;2.70;2.50;;;24.10;51.90;;;;;;5078350;28;20533;-63
2021/03/02 08:00:26;;;;;;;2.40;2.30;;;24.20;51.90;;;;;;5091185;28;20840;-65
2021/03/02 08:03:29;;;;;;;2.33;2.00;;;24.10;51.90;;;;;;5096570;28;20521;-63
2021/03/02 08:06:00;;;;;;;2.30;2.10;;;24.10;51.90;;;;;;5092812;28;20602;-64
2021/03/02 08:08:37;;;;;;;2.33;2.20;;;24.10;52.20;;;;;;5096443;28;20444;-66
2021/03/02 08:11:28;;;;;;;2.60;2.40;;;24.20;52.00;;;;;;5087736;28;20430;-62
2021/03/02 08:13:54;;;;;;;3.03;2.63;;;24.20;52.00;;;;;;5085324;28;20799;-66
2021/03/02 08:16:53;;;;;;;2.40;2.20;;;24.10;51.90;;;;;;5082470;28;20479;-64
2021/03/02 08:19:38;;;;;;;2.60;2.40;;;24.20;52.00;;;;;;5079089;28;20434;-62
2021/03/02 08:22:38;;;;;;;2.50;2.30;;;24.20;52.00;;;;;;5095667;28;20442;-65
2021/03/02 08:25:06;;;;;;;2.43;2.20;;;24.20;52.00;;;;;;5085848;28;21022;-60
2021/03/02 08:27:37;;;;;;;2.23;2.13;;;24.20;52.00;;;;;;5078442;28;20444;-65
2021/03/02 08:30:05;;;;;;;2.83;2.30;;;24.20;52.00;;;;;;5075814;28;20439;-61
2021/03/02 08:32:32;;;;;;;2.37;2.20;;;24.20;52.00;;;;;;5075611;28;20927;-62
2021/03/02 08:35:03;;;;;;;2.77;2.57;;;24.20;52.00;;;;;;5075577;28;20444;-63
2021/03/02 08:37:40;;;;;;;3.07;2.80;;;24.20;52.00;;;;;;5075498;28;20489;-62
2021/03/02 08:40:08;;;;;;;2.30;2.20;;;24.20;52.00;;;;;;5075898;28;20444;-61
2021/03/02 08:42:34;;;;;;;2.40;2.20;;;24.20;51.90;;;;;;5075478;28;20444;-66
2021/03/02 08:45:05;;;;;;;2.40;2.20;;;24.30;52.00;;;;;;5075370;28;20441;-66
2021/03/02 08:47:33;;;;;;;2.27;2.07;;;24.30;52.00;;;;;;5075240;28;20454;-66
2021/03/02 08:49:59;;;;;;;1.93;1.83;;;24.40;52.00;;;;;;5074893;28;20502;-66
2021/03/02 08:52:36;;;;;;;2.47;2.27;;;24.40;52.00;;;;;;5075519;28;20449;-66
2021/03/02 08:55:03;;;;;;;2.50;2.30;;;24.40;51.90;;;;;;5075410;28;20989;-66
2021/03/02 08:57:30;;;;;;;2.23;2.13;;;24.40;52.00;;;;;;5075202;28;20479;-65
2021/03/02 08:59:56;;;;;;;2.40;2.20;;;24.40;52.00;;;;;;5075108;28;20541;-66
2021/03/02 09:02:22;;;;;;;4.50;2.47;;;24.60;52.20;;;;;;5074969;28;20441;-66
2021/03/02 09:04:49;;;;;;;10.60;4.20;;;24.50;52.30;;;;;;5075277;28;20450;-65
2021/03/02 09:07:22;;;;;;;12.90;4.40;;;24.50;52.10;;;;;;5074932;28;20456;-66
2021/03/02 09:09:48;;;;;;;7.40;3.10;;;24.50;52.00;;;;;;5074836;28;20466;-65
2021/03/02 09:12:14;;;;;;;3.73;2.70;;;24.50;52.00;;;;;;5074962;28;20791;-66
2021/03/02 09:14:41;;;;;;;5.30;2.67;;;24.50;52.10;;;;;;5074972;28;20763;-65
2021/03/02 09:17:07;;;;;;;6.50;2.80;;;24.50;52.10;;;;;;5074903;28;20497;-65
2021/03/02 09:19:35;;;;;;;3.20;2.23;;;24.50;52.20;;;;;;5075062;28;20448;-65
2021/03/02 09:22:04;;;;;;;2.87;2.00;;;24.50;52.20;;;;;;5074895;28;20773;-65
2021/03/02 09:24:35;;;;;;;2.97;2.67;;;24.60;52.30;;;;;;5074618;28;20444;-63
2021/03/02 09:27:03;;;;;;;2.80;2.03;;;24.50;52.30;;;;;;5074515;28;20674;-62
2021/03/02 09:29:33;;;;;;;5.03;1.90;;;24.50;52.30;;;;;;5074814;28;20436;-62
2021/03/02 09:32:03;;;;;;;3.83;2.30;;;24.60;52.50;;;;;;5074529;28;20977;-62
2021/03/02 09:34:30;;;;;;;4.40;2.43;;;24.60;52.50;;;;;;5074554;28;20490;-63
2021/03/02 09:37:02;;;;;;;2.77;2.50;;;24.60;52.40;;;;;;5074304;28;20483;-60
2021/03/02 09:39:29;;;;;;;2.47;2.27;;;24.60;52.40;;;;;;5074584;28;20444;-64
2021/03/02 09:41:55;;;;;;;5.00;2.20;;;24.70;52.60;;;;;;5074286;28;20497;-61
2021/03/02 09:44:32;;;;;;;2.70;2.50;;;24.60;52.50;;;;;;5074196;28;20443;-61
2021/03/02 09:47:02;;;;;;;2.30;2.10;;;24.70;52.60;;;;;;5074377;28;20444;-60
2021/03/02 09:49:41;;;;;;;2.50;2.30;;;24.60;52.50;;;;;;5074168;28;20444;-62
2021/03/02 09:52:33;;;;;;;3.20;2.30;;;24.60;52.60;;;;;;5074064;28;20444;-60
2021/03/02 09:55:14;;;;;;;1.90;1.80;;;24.60;52.60;;;;;;5073873;28;20986;-60
2021/03/02 09:57:58;;;;;;;1.87;1.73;;;24.60;52.60;;;;;;5074091;28;20842;-63
2021/03/02 10:00:26;;;;;;;2.03;1.73;;;24.60;52.60;;;;;;5073973;28;20443;-64
2021/03/02 10:02:55;;;;;;;2.30;2.03;;;24.60;52.50;;;;;;5073991;28;20436;-64
2021/03/02 10:05:32;;;;;;;2.27;2.07;;;24.60;52.50;;;;;;5073817;28;20791;-64
2021/03/02 10:08:00;;;;;;;2.10;2.00;;;24.70;52.50;;;;;;5073908;28;20803;-64
2021/03/02 10:10:37;;;;;;;3.10;2.20;;;24.70;52.40;;;;;;5073684;28;20472;-65
2021/03/02 10:13:03;;;;;;;2.30;2.10;;;24.70;52.50;;;;;;5073857;28;20449;-64
2021/03/02 10:15:29;;;;;;;2.67;2.47;;;24.70;52.50;;;;;;5073865;28;20442;-66
2021/03/02 10:17:56;;;;;;;1.90;1.80;;;24.70;52.50;;;;;;5073816;28;20925;-66
2021/03/02 10:20:22;;;;;;;2.60;2.40;;;24.70;52.50;;;;;;5073091;28;20446;-66
2021/03/02 10:23:02;;;;;;;2.63;2.00;;;24.70;52.50;;;;;;5073587;28;20458;-64
2021/03/02 10:25:39;;;;;;;2.60;2.40;;;24.80;52.50;;;;;;5073708;28;20432;-64
2021/03/02 10:28:06;;;;;;;1.97;1.87;;;24.70;52.50;;;;;;5073765;28;20436;-61
2021/03/02 10:30:32;;;;;;;2.30;2.10;;;24.70;52.50;;;;;;5073677;28;20438;-62
2021/03/02 10:32:59;;;;;;;2.60;2.27;;;24.70;52.50;;;;;;5073382;28;20436;-61
2021/03/02 10:35:25;;;;;;;2.33;2.00;;;24.70;52.50;;;;;;5073265;28;20949;-61
2021/03/02 10:37:52;;;;;;;3.10;2.00;;;24.70;52.50;;;;;;5073284;28;20497;-61
2021/03/02 10:40:19;;;;;;;2.20;2.10;;;24.70;52.50;;;;;;5073425;28;20926;-65
2021/03/02 10:42:46;;;;;;;1.60;1.50;;;24.70;52.50;;;;;;5073328;28;20946;-64
2021/03/02 10:45:12;;;;;;;2.73;2.53;;;24.70;52.50;;;;;;5073218;28;20798;-60
2021/03/02 10:47:39;;;;;;;5.43;2.37;;;24.70;52.50;;;;;;5073285;28;20436;-60
2021/03/02 10:50:06;;;;;;;2.83;2.50;;;24.70;52.50;;;;;;5073219;28;20440;-60
2021/03/02 10:52:32;;;;;;;2.30;2.10;;;24.70;52.50;;;;;;5073132;28;20442;-60
2021/03/02 10:54:58;;;;;;;2.17;2.07;;;24.70;52.50;;;;;;5073117;28;20471;-60
2021/03/02 10:57:25;;;;;;;1.90;1.80;;;24.70;52.60;;;;;;5073072;28;20491;-60
2021/03/02 10:59:52;;;;;;;1.93;1.80;;;24.70;52.50;;;;;;5073180;28;20842;-60
2021/03/02 11:02:18;;;;;;;1.97;1.77;;;24.70;52.50;;;;;;5073182;28;20776;-60
2021/03/02 11:04:44;;;;;;;2.97;2.23;;;24.80;52.60;;;;;;5073196;28;20454;-60
2021/03/02 11:07:10;;;;;;;3.27;2.10;;;24.80;52.70;;;;;;5073065;28;20940;-62
2021/03/02 11:09:37;;;;;;;2.20;2.00;;;24.80;52.70;;;;;;5073103;28;20435;-63
2021/03/02 11:12:04;;;;;;;1.90;1.80;;;24.80;52.80;;;;;;5073043;28;20513;-60
2021/03/02 11:14:31;;;;;;;1.77;1.63;;;24.80;52.80;;;;;;5072945;28;20440;-60
2021/03/02 11:16:57;;;;;;;2.23;1.70;;;24.80;52.70;;;;;;5072955;28;20506;-62
2021/03/02 11:19:23;;;;;;;2.57;2.00;;;24.80;52.80;;;;;;5072911;28;20459;-64
2021/03/02 11:21:49;;;;;;;2.00;1.83;;;24.80;52.70;;;;;;5073026;28;20994;-63
2021/03/02 11:24:16;;;;;;;2.70;2.27;;;24.80;52.60;;;;;;5072920;28;20796;-62
2021/03/02 11:26:42;;;;;;;1.93;1.83;;;24.80;52.60;;;;;;5072867;28;20930;-61
2021/03/02 11:29:08;;;;;;;2.70;1.90;;;24.80;52.70;;;;;;5072905;28;20437;-60
2021/03/02 11:31:35;;;;;;;1.90;1.80;;;24.80;52.70;;;;;;5073328;28;20436;-61
2021/03/02 11:34:01;;;;;;;2.13;2.03;;;24.80;52.70;;;;;;5076888;28;20796;-60
2021/03/02 11:36:28;;;;;;;2.00;1.80;;;24.80;52.70;;;;;;5076597;28;20804;-60
2021/03/02 11:38:54;;;;;;;1.70;1.60;;;24.90;52.80;;;;;;5076726;28;20501;-62
2021/03/02 11:41:20;;;;;;;2.30;2.10;;;24.90;52.70;;;;;;5076705;28;20448;-64
2021/03/02 11:43:46;;;;;;;1.97;1.80;;;24.90;52.70;;;;;;5076778;28;20430;-61
2021/03/02 11:46:13;;;;;;;2.10;1.90;;;24.90;52.80;;;;;;5076569;28;20432;-63
2021/03/02 11:48:40;;;;;;;1.97;1.77;;;24.90;52.80;;;;;;5076475;28;20461;-60
2021/03/02 11:51:06;;;;;;;1.60;1.50;;;24.90;52.70;;;;;;5076664;28;20960;-60
2021/03/02 11:53:32;;;;;;;1.70;1.60;;;24.90;52.70;;;;;;5076063;28;20432;-60
2021/03/02 11:55:59;;;;;;;2.17;1.97;;;24.90;52.70;;;;;;5076400;28;20448;-60
2021/03/02 11:58:25;;;;;;;2.00;1.90;;;24.90;52.60;;;;;;5076196;28;20483;-60
2021/03/02 12:00:51;;;;;;;2.10;1.90;;;24.90;52.60;;;;;;5076334;28;20458;-60
2021/03/02 12:03:18;;;;;;;1.50;1.40;;;24.90;52.50;;;;;;5076146;28;20444;-60
2021/03/02 12:05:45;;;;;;;2.20;2.10;;;24.90;52.50;;;;;;5076200;28;20475;-60
2021/03/02 12:08:12;;;;;;;1.70;1.60;;;24.90;52.50;;;;;;5076113;28;21243;-60
2021/03/02 12:10:38;;;;;;;1.93;1.83;;;25.00;52.50;;;;;;5076061;28;20539;-61
2021/03/02 12:13:05;;;;;;;1.60;1.50;;;25.00;52.50;;;;;;5076009;28;20440;-60
2021/03/02 12:15:31;;;;;;;1.73;1.63;;;25.00;52.50;;;;;;5075956;28;20445;-61
2021/03/02 12:17:57;;;;;;;1.80;1.70;;;25.00;52.50;;;;;;5075926;28;21395;-60
2021/03/02 12:20:24;;;;;;;1.83;1.73;;;25.00;52.50;;;;;;5075857;28;20498;-61
2021/03/02 12:22:51;;;;;;;1.87;1.77;;;25.00;53.00;;;;;;5075914;28;20938;-60
2021/03/02 12:25:17;;;;;;;2.30;2.10;;;25.00;52.40;;;;;;5075910;28;20497;-63
2021/03/02 12:27:44;;;;;;;1.60;1.50;;;25.00;53.00;;;;;;5075774;28;20444;-61
2021/03/02 12:30:11;;;;;;;2.13;1.50;;;25.00;52.40;;;;;;5075919;28;20440;-60
2021/03/02 12:32:37;;;;;;;1.53;1.43;;;25.00;52.30;;;;;;5075614;28;20478;-60
2021/03/02 12:35:05;;;;;;;2.00;1.80;;;25.00;52.40;;;;;;5075900;28;20789;-63
2021/03/02 12:37:31;;;;;;;1.60;1.50;;;25.00;52.40;;;;;;5075590;28;20483;-61
2021/03/02 12:39:58;;;;;;;1.43;1.33;;;25.00;52.40;;;;;;5075622;28;20441;-65
2021/03/02 12:42:25;;;;;;;1.83;1.53;;;25.00;52.50;;;;;;5073895;28;20447;-61
2021/03/02 12:44:51;;;;;;;2.43;2.00;;;25.00;52.50;;;;;;5074824;28;20470;-60
2021/03/02 12:47:18;;;;;;;2.53;1.90;;;25.00;52.60;;;;;;5075457;28;20436;-63
2021/03/02 12:49:44;;;;;;;2.50;1.87;;;25.00;52.60;;;;;;5075372;28;20463;-60
2021/03/02 12:52:11;;;;;;;1.70;1.60;;;25.10;52.70;;;;;;5075218;28;21007;-60
2021/03/02 12:54:37;;;;;;;2.80;1.80;;;25.00;52.70;;;;;;5075121;28;20476;-61
2021/03/02 12:57:04;;;;;;;3.17;1.80;;;25.00;52.70;;;;;;5075196;28;20472;-61